Terminal Aerodrome Forecast
Issued by NWS Shreveport, LA

Home | Current Version | Previous Version | Text Only | Print | Product List | Glossary On
Versions: 1 2 3 4 5 6 7 8 9 10 11 12 13 14 15
152
FTUS44 KSHV 142346
TAFSHV
TAF
KSHV 142346Z 1500/1524 16008KT P6SM OVC050
      TEMPO 1503/1506 OVC030
     FM150600 17009KT P6SM VCSH OVC015
     FM151200 18010KT 5SM -SHRA VCTS OVC007CB
      TEMPO 1514/1518 30012G18KT 3SM -TSRA BR OVC015CB
     FM152000 34010KT P6SM FEW030=

USA.gov is the U.S. government's official web portal to all federal, state and local government web resources and services.